sensor_id;sensor_type;location;lat;lon;timestamp;P1;durP1;ratioP1;P2;durP2;ratioP2
17648;SDS011;8943;51.110;-4.158;2022-12-08T00:02:29;1.90;;;1.63;;
17648;SDS011;8943;51.110;-4.158;2022-12-08T00:05:03;2.90;;;1.60;;
17648;SDS011;8943;51.110;-4.158;2022-12-08T00:25:49;1.93;;;1.17;;
17648;SDS011;8943;51.110;-4.158;2022-12-08T00:28:51;4.93;;;1.80;;
17648;SDS011;8943;51.110;-4.158;2022-12-08T00:31:42;2.20;;;1.47;;
17648;SDS011;8943;51.110;-4.158;2022-12-08T00:34:29;2.97;;;1.40;;
17648;SDS011;8943;51.110;-4.158;2022-12-08T00:37:27;3.37;;;1.20;;
17648;SDS011;8943;51.110;-4.158;2022-12-08T00:40:30;2.07;;;1.40;;
17648;SDS011;8943;51.110;-4.158;2022-12-08T00:43:02;3.07;;;1.27;;
17648;SDS011;8943;51.110;-4.158;2022-12-08T00:45:31;1.80;;;1.00;;
17648;SDS011;8943;51.110;-4.158;2022-12-08T00:48:27;1.20;;;1.10;;
17648;SDS011;8943;51.110;-4.158;2022-12-08T00:51:04;1.67;;;1.07;;
17648;SDS011;8943;51.110;-4.158;2022-12-08T00:53:57;1.53;;;1.00;;
17648;SDS011;8943;51.110;-4.158;2022-12-08T01:00:15;2.10;;;1.20;;
17648;SDS011;8943;51.110;-4.158;2022-12-08T01:03:12;1.83;;;1.10;;
17648;SDS011;8943;51.110;-4.158;2022-12-08T01:05:40;4.37;;;1.47;;
17648;SDS011;8943;51.110;-4.158;2022-12-08T01:08:10;2.70;;;1.23;;
17648;SDS011;8943;51.110;-4.158;2022-12-08T01:10:42;1.53;;;1.10;;
17648;SDS011;8943;51.110;-4.158;2022-12-08T01:13:11;2.67;;;1.30;;
17648;SDS011;8943;51.110;-4.158;2022-12-08T01:15:44;1.60;;;0.97;;
17648;SDS011;8943;51.110;-4.158;2022-12-08T01:41:06;6.07;;;1.77;;
17648;SDS011;8943;51.110;-4.158;2022-12-08T01:43:58;3.50;;;1.90;;
17648;SDS011;8943;51.110;-4.158;2022-12-08T01:46:43;1.97;;;0.90;;
17648;SDS011;8943;51.110;-4.158;2022-12-08T01:49:24;1.47;;;1.10;;
17648;SDS011;8943;51.110;-4.158;2022-12-08T01:52:18;0.67;;;0.53;;
17648;SDS011;8943;51.110;-4.158;2022-12-08T01:58:37;2.67;;;1.63;;
17648;SDS011;8943;51.110;-4.158;2022-12-08T02:01:34;3.93;;;2.20;;
17648;SDS011;8943;51.110;-4.158;2022-12-08T02:05:17;6.13;;;2.90;;
17648;SDS011;8943;51.110;-4.158;2022-12-08T02:07:54;3.83;;;2.10;;
17648;SDS011;8943;51.110;-4.158;2022-12-08T02:10:27;4.10;;;1.70;;
17648;SDS011;8943;51.110;-4.158;2022-12-08T02:12:57;2.13;;;1.10;;
17648;SDS011;8943;51.110;-4.158;2022-12-08T02:15:29;2.60;;;1.30;;
17648;SDS011;8943;51.110;-4.158;2022-12-08T02:18:16;3.67;;;1.90;;
17648;SDS011;8943;51.110;-4.158;2022-12-08T02:20:59;4.93;;;2.57;;
17648;SDS011;8943;51.110;-4.158;2022-12-08T02:23:56;8.60;;;2.63;;
17648;SDS011;8943;51.110;-4.158;2022-12-08T02:26:56;7.00;;;2.33;;
17648;SDS011;8943;51.110;-4.158;2022-12-08T02:32:45;14.80;;;2.47;;
17648;SDS011;8943;51.110;-4.158;2022-12-08T02:36:21;4.03;;;2.23;;
17648;SDS011;8943;51.110;-4.158;2022-12-08T02:39:58;3.03;;;1.87;;
17648;SDS011;8943;51.110;-4.158;2022-12-08T02:43:08;15.80;;;3.20;;
17648;SDS011;8943;51.110;-4.158;2022-12-08T02:46:20;5.77;;;2.00;;
17648;SDS011;8943;51.110;-4.158;2022-12-08T02:54:54;4.30;;;2.33;;
17648;SDS011;8943;51.110;-4.158;2022-12-08T03:30:07;32.83;;;3.50;;
17648;SDS011;8943;51.110;-4.158;2022-12-08T05:24:43;2.80;;;1.10;;
17648;SDS011;8943;51.110;-4.158;2022-12-08T05:30:02;1.97;;;1.20;;
17648;SDS011;8943;51.110;-4.158;2022-12-08T05:32:58;5.27;;;1.10;;
17648;SDS011;8943;51.110;-4.158;2022-12-08T05:35:35;3.33;;;1.00;;
17648;SDS011;8943;51.110;-4.158;2022-12-08T05:47:30;1.80;;;1.10;;
17648;SDS011;8943;51.110;-4.158;2022-12-08T05:50:15;1.77;;;1.20;;
17648;SDS011;8943;51.110;-4.158;2022-12-08T05:53:14;4.10;;;1.43;;
17648;SDS011;8943;51.110;-4.158;2022-12-08T05:59:52;2.33;;;1.40;;
17648;SDS011;8943;51.110;-4.158;2022-12-08T06:03:20;1.53;;;1.23;;
17648;SDS011;8943;51.110;-4.158;2022-12-08T06:06:36;1.80;;;1.07;;
17648;SDS011;8943;51.110;-4.158;2022-12-08T06:45:39;8.50;;;4.73;;
17648;SDS011;8943;51.110;-4.158;2022-12-08T06:48:14;7.70;;;5.30;;
17648;SDS011;8943;51.110;-4.158;2022-12-08T06:50:43;4.83;;;3.10;;
17648;SDS011;8943;51.110;-4.158;2022-12-08T06:53:16;4.87;;;2.63;;
17648;SDS011;8943;51.110;-4.158;2022-12-08T06:56:16;4.17;;;2.90;;
17648;SDS011;8943;51.110;-4.158;2022-12-08T07:08:37;34.90;;;5.40;;
17648;SDS011;8943;51.110;-4.158;2022-12-08T07:11:05;28.77;;;6.43;;
17648;SDS011;8943;51.110;-4.158;2022-12-08T07:13:34;107.63;;;9.70;;
17648;SDS011;8943;51.110;-4.158;2022-12-08T07:16:03;201.83;;;14.10;;
17648;SDS011;8943;51.110;-4.158;2022-12-08T07:18:33;5.63;;;3.43;;
17648;SDS011;8943;51.110;-4.158;2022-12-08T07:21:03;2.30;;;2.00;;
17648;SDS011;8943;51.110;-4.158;2022-12-08T07:23:34;4.83;;;2.60;;
17648;SDS011;8943;51.110;-4.158;2022-12-08T07:26:04;3.10;;;2.00;;
17648;SDS011;8943;51.110;-4.158;2022-12-08T07:28:35;2.17;;;1.70;;
17648;SDS011;8943;51.110;-4.158;2022-12-08T07:31:05;13.17;;;3.43;;
17648;SDS011;8943;51.110;-4.158;2022-12-08T07:33:36;4.13;;;2.80;;
17648;SDS011;8943;51.110;-4.158;2022-12-08T07:36:06;2.90;;;1.60;;
17648;SDS011;8943;51.110;-4.158;2022-12-08T07:38:36;27.23;;;3.93;;
17648;SDS011;8943;51.110;-4.158;2022-12-08T07:41:13;6.47;;;2.50;;
17648;SDS011;8943;51.110;-4.158;2022-12-08T07:43:42;3.40;;;2.13;;
17648;SDS011;8943;51.110;-4.158;2022-12-08T07:46:12;4.37;;;2.50;;
17648;SDS011;8943;51.110;-4.158;2022-12-08T07:48:51;3.53;;;2.50;;
17648;SDS011;8943;51.110;-4.158;2022-12-08T07:51:20;4.43;;;1.77;;
17648;SDS011;8943;51.110;-4.158;2022-12-08T07:53:54;4.60;;;2.60;;
17648;SDS011;8943;51.110;-4.158;2022-12-08T07:56:23;125.33;;;10.07;;
17648;SDS011;8943;51.110;-4.158;2022-12-08T07:58:52;13.73;;;4.37;;
17648;SDS011;8943;51.110;-4.158;2022-12-08T08:01:21;7.37;;;5.33;;
17648;SDS011;8943;51.110;-4.158;2022-12-08T08:03:52;112.60;;;12.63;;
17648;SDS011;8943;51.110;-4.158;2022-12-08T08:06:21;5.67;;;4.40;;
17648;SDS011;8943;51.110;-4.158;2022-12-08T08:08:52;5.43;;;3.23;;
17648;SDS011;8943;51.110;-4.158;2022-12-08T08:11:20;4.73;;;2.60;;
17648;SDS011;8943;51.110;-4.158;2022-12-08T08:13:49;3.17;;;2.60;;
17648;SDS011;8943;51.110;-4.158;2022-12-08T08:16:21;3.67;;;2.33;;
17648;SDS011;8943;51.110;-4.158;2022-12-08T08:18:51;5.60;;;3.73;;
17648;SDS011;8943;51.110;-4.158;2022-12-08T08:21:19;3.70;;;2.37;;
17648;SDS011;8943;51.110;-4.158;2022-12-08T08:24:15;4.33;;;3.00;;
17648;SDS011;8943;51.110;-4.158;2022-12-08T08:26:59;287.57;;;20.27;;
17648;SDS011;8943;51.110;-4.158;2022-12-08T08:29:29;27.37;;;6.17;;
17648;SDS011;8943;51.110;-4.158;2022-12-08T08:32:07;7.43;;;4.27;;
17648;SDS011;8943;51.110;-4.158;2022-12-08T08:34:41;5.10;;;2.73;;
17648;SDS011;8943;51.110;-4.158;2022-12-08T08:37:10;4.67;;;2.27;;
17648;SDS011;8943;51.110;-4.158;2022-12-08T08:45:15;3.17;;;2.10;;
17648;SDS011;8943;51.110;-4.158;2022-12-08T08:47:44;3.50;;;1.70;;
17648;SDS011;8943;51.110;-4.158;2022-12-08T08:50:15;5.10;;;1.63;;
17648;SDS011;8943;51.110;-4.158;2022-12-08T08:52:47;11.93;;;2.73;;
17648;SDS011;8943;51.110;-4.158;2022-12-08T08:55:18;94.73;;;7.77;;
17648;SDS011;8943;51.110;-4.158;2022-12-08T08:57:46;92.87;;;7.93;;
17648;SDS011;8943;51.110;-4.158;2022-12-08T09:00:21;5.17;;;2.37;;
17648;SDS011;8943;51.110;-4.158;2022-12-08T09:02:49;4.13;;;2.50;;
17648;SDS011;8943;51.110;-4.158;2022-12-08T09:05:17;5.67;;;2.70;;
17648;SDS011;8943;51.110;-4.158;2022-12-08T09:07:46;6.83;;;2.70;;
17648;SDS011;8943;51.110;-4.158;2022-12-08T09:10:14;3.57;;;2.30;;
17648;SDS011;8943;51.110;-4.158;2022-12-08T09:12:43;6.97;;;3.03;;
17648;SDS011;8943;51.110;-4.158;2022-12-08T09:15:11;92.40;;;7.70;;
17648;SDS011;8943;51.110;-4.158;2022-12-08T09:17:41;5.77;;;2.40;;
17648;SDS011;8943;51.110;-4.158;2022-12-08T09:20:09;9.27;;;4.73;;
17648;SDS011;8943;51.110;-4.158;2022-12-08T09:22:38;4.83;;;2.30;;
17648;SDS011;8943;51.110;-4.158;2022-12-08T09:25:07;4.17;;;2.40;;
17648;SDS011;8943;51.110;-4.158;2022-12-08T09:27:35;2.57;;;2.30;;
17648;SDS011;8943;51.110;-4.158;2022-12-08T09:30:04;4.00;;;3.33;;
17648;SDS011;8943;51.110;-4.158;2022-12-08T09:32:34;4.97;;;3.40;;
17648;SDS011;8943;51.110;-4.158;2022-12-08T09:35:04;3.30;;;2.33;;
17648;SDS011;8943;51.110;-4.158;2022-12-08T09:37:32;4.90;;;2.60;;
17648;SDS011;8943;51.110;-4.158;2022-12-08T09:40:01;3.93;;;2.70;;
17648;SDS011;8943;51.110;-4.158;2022-12-08T09:42:32;5.20;;;2.97;;
17648;SDS011;8943;51.110;-4.158;2022-12-08T09:45:09;5.53;;;2.10;;
17648;SDS011;8943;51.110;-4.158;2022-12-08T09:47:41;2.37;;;2.10;;
17648;SDS011;8943;51.110;-4.158;2022-12-08T09:50:17;3.50;;;2.10;;
17648;SDS011;8943;51.110;-4.158;2022-12-08T09:52:51;11.00;;;3.53;;
17648;SDS011;8943;51.110;-4.158;2022-12-08T09:55:33;8.03;;;3.50;;
17648;SDS011;8943;51.110;-4.158;2022-12-08T09:58:09;5.77;;;4.00;;
17648;SDS011;8943;51.110;-4.158;2022-12-08T10:00:45;63.53;;;6.47;;
17648;SDS011;8943;51.110;-4.158;2022-12-08T10:03:22;3.50;;;2.33;;
17648;SDS011;8943;51.110;-4.158;2022-12-08T10:06:13;3.03;;;2.20;;
17648;SDS011;8943;51.110;-4.158;2022-12-08T10:08:48;6.13;;;2.37;;
17648;SDS011;8943;51.110;-4.158;2022-12-08T10:11:39;3.77;;;2.50;;
17648;SDS011;8943;51.110;-4.158;2022-12-08T10:20:05;2.83;;;1.67;;
17648;SDS011;8943;51.110;-4.158;2022-12-08T10:22:48;2.40;;;1.57;;
17648;SDS011;8943;51.110;-4.158;2022-12-08T10:25:20;1.60;;;1.30;;
17648;SDS011;8943;51.110;-4.158;2022-12-08T10:27:54;2.40;;;1.40;;
17648;SDS011;8943;51.110;-4.158;2022-12-08T10:30:25;3.93;;;1.67;;
17648;SDS011;8943;51.110;-4.158;2022-12-08T10:32:54;2.40;;;1.50;;
17648;SDS011;8943;51.110;-4.158;2022-12-08T10:35:22;2.67;;;1.10;;
17648;SDS011;8943;51.110;-4.158;2022-12-08T10:37:56;4.23;;;2.87;;
17648;SDS011;8943;51.110;-4.158;2022-12-08T10:40:25;6.07;;;3.00;;
17648;SDS011;8943;51.110;-4.158;2022-12-08T10:42:56;4.93;;;3.50;;
17648;SDS011;8943;51.110;-4.158;2022-12-08T10:45:29;3.47;;;2.30;;
17648;SDS011;8943;51.110;-4.158;2022-12-08T10:48:01;5.20;;;3.23;;
17648;SDS011;8943;51.110;-4.158;2022-12-08T10:50:32;4.03;;;2.33;;
17648;SDS011;8943;51.110;-4.158;2022-12-08T10:53:18;6.23;;;3.20;;
17648;SDS011;8943;51.110;-4.158;2022-12-08T10:55:49;4.50;;;2.47;;
17648;SDS011;8943;51.110;-4.158;2022-12-08T10:58:27;3.03;;;1.77;;
17648;SDS011;8943;51.110;-4.158;2022-12-08T11:01:04;3.40;;;2.20;;
17648;SDS011;8943;51.110;-4.158;2022-12-08T11:03:38;2.83;;;2.30;;
17648;SDS011;8943;51.110;-4.158;2022-12-08T11:06:14;2.80;;;2.10;;
17648;SDS011;8943;51.110;-4.158;2022-12-08T11:08:48;2.93;;;1.80;;
17648;SDS011;8943;51.110;-4.158;2022-12-08T11:11:18;3.33;;;2.07;;
17648;SDS011;8943;51.110;-4.158;2022-12-08T11:13:54;6.03;;;2.20;;
17648;SDS011;8943;51.110;-4.158;2022-12-08T11:16:28;6.70;;;2.60;;
17648;SDS011;8943;51.110;-4.158;2022-12-08T11:19:22;2.73;;;2.30;;
17648;SDS011;8943;51.110;-4.158;2022-12-08T11:22:00;2.50;;;2.10;;
17648;SDS011;8943;51.110;-4.158;2022-12-08T11:24:31;1.93;;;1.70;;
17648;SDS011;8943;51.110;-4.158;2022-12-08T11:27:03;11.60;;;2.87;;
17648;SDS011;8943;51.110;-4.158;2022-12-08T11:29:34;5.40;;;2.80;;
17648;SDS011;8943;51.110;-4.158;2022-12-08T11:32:10;6.93;;;3.03;;
17648;SDS011;8943;51.110;-4.158;2022-12-08T11:34:44;7.77;;;3.23;;
17648;SDS011;8943;51.110;-4.158;2022-12-08T11:37:24;6.90;;;3.33;;
17648;SDS011;8943;51.110;-4.158;2022-12-08T11:40:03;5.90;;;4.40;;
17648;SDS011;8943;51.110;-4.158;2022-12-08T11:48:44;4.27;;;3.30;;
17648;SDS011;8943;51.110;-4.158;2022-12-08T11:51:42;4.03;;;2.83;;
17648;SDS011;8943;51.110;-4.158;2022-12-08T11:54:17;3.97;;;2.73;;
17648;SDS011;8943;51.110;-4.158;2022-12-08T12:00:13;6.47;;;4.47;;
17648;SDS011;8943;51.110;-4.158;2022-12-08T12:02:45;6.90;;;4.60;;
17648;SDS011;8943;51.110;-4.158;2022-12-08T12:05:54;4.57;;;3.23;;
17648;SDS011;8943;51.110;-4.158;2022-12-08T12:09:29;4.60;;;2.50;;
17648;SDS011;8943;51.110;-4.158;2022-12-08T12:12:37;4.60;;;2.50;;
17648;SDS011;8943;51.110;-4.158;2022-12-08T12:19:11;4.27;;;2.33;;
17648;SDS011;8943;51.110;-4.158;2022-12-08T12:22:28;3.00;;;1.93;;
17648;SDS011;8943;51.110;-4.158;2022-12-08T12:43:27;4.77;;;2.13;;
17648;SDS011;8943;51.110;-4.158;2022-12-08T12:56:08;6.90;;;2.00;;
17648;SDS011;8943;51.110;-4.158;2022-12-08T12:58:54;3.27;;;2.53;;
17648;SDS011;8943;51.110;-4.158;2022-12-08T13:01:56;7.37;;;2.10;;
17648;SDS011;8943;51.110;-4.158;2022-12-08T13:11:02;6.10;;;2.37;;
17648;SDS011;8943;51.110;-4.158;2022-12-08T13:54:32;2.47;;;1.50;;
17648;SDS011;8943;51.110;-4.158;2022-12-08T13:57:28;1.67;;;1.43;;
17648;SDS011;8943;51.110;-4.158;2022-12-08T13:59:59;3.70;;;1.63;;
17648;SDS011;8943;51.110;-4.158;2022-12-08T14:02:29;2.23;;;1.27;;
17648;SDS011;8943;51.110;-4.158;2022-12-08T14:05:10;2.43;;;1.80;;
17648;SDS011;8943;51.110;-4.158;2022-12-08T14:07:55;3.10;;;2.00;;
17648;SDS011;8943;51.110;-4.158;2022-12-08T14:10:26;2.73;;;1.40;;
17648;SDS011;8943;51.110;-4.158;2022-12-08T14:12:59;10.83;;;1.60;;
17648;SDS011;8943;51.110;-4.158;2022-12-08T14:15:33;4.60;;;1.77;;
17648;SDS011;8943;51.110;-4.158;2022-12-08T14:18:04;3.90;;;1.77;;
17648;SDS011;8943;51.110;-4.158;2022-12-08T14:20:57;3.17;;;1.80;;
17648;SDS011;8943;51.110;-4.158;2022-12-08T14:23:51;3.73;;;2.13;;
17648;SDS011;8943;51.110;-4.158;2022-12-08T14:26:26;3.83;;;2.27;;
17648;SDS011;8943;51.110;-4.158;2022-12-08T14:29:42;3.93;;;2.17;;
17648;SDS011;8943;51.110;-4.158;2022-12-08T14:32:20;3.87;;;1.90;;
17648;SDS011;8943;51.110;-4.158;2022-12-08T14:34:52;4.70;;;2.40;;
17648;SDS011;8943;51.110;-4.158;2022-12-08T14:37:22;3.13;;;1.90;;
17648;SDS011;8943;51.110;-4.158;2022-12-08T14:39:52;2.60;;;1.70;;
17648;SDS011;8943;51.110;-4.158;2022-12-08T14:42:40;5.87;;;1.97;;
17648;SDS011;8943;51.110;-4.158;2022-12-08T14:45:46;2.30;;;1.70;;
17648;SDS011;8943;51.110;-4.158;2022-12-08T14:48:41;3.03;;;1.50;;
17648;SDS011;8943;51.110;-4.158;2022-12-08T14:51:53;3.07;;;1.73;;
17648;SDS011;8943;51.110;-4.158;2022-12-08T14:54:31;3.63;;;1.70;;
17648;SDS011;8943;51.110;-4.158;2022-12-08T14:57:16;4.40;;;2.40;;
17648;SDS011;8943;51.110;-4.158;2022-12-08T14:59:49;4.90;;;2.80;;
17648;SDS011;8943;51.110;-4.158;2022-12-08T15:02:50;4.77;;;2.23;;
17648;SDS011;8943;51.110;-4.158;2022-12-08T15:05:26;4.80;;;2.50;;
17648;SDS011;8943;51.110;-4.158;2022-12-08T15:08:11;4.63;;;2.40;;
17648;SDS011;8943;51.110;-4.158;2022-12-08T15:11:13;3.97;;;2.40;;
17648;SDS011;8943;51.110;-4.158;2022-12-08T15:14:28;3.23;;;2.40;;
17648;SDS011;8943;51.110;-4.158;2022-12-08T15:20:24;6.73;;;3.53;;
17648;SDS011;8943;51.110;-4.158;2022-12-08T15:23:03;7.43;;;3.63;;
17648;SDS011;8943;51.110;-4.158;2022-12-08T15:25:57;5.47;;;3.77;;
17648;SDS011;8943;51.110;-4.158;2022-12-08T15:31:27;7.23;;;4.67;;
17648;SDS011;8943;51.110;-4.158;2022-12-08T15:37:01;5.50;;;4.37;;
17648;SDS011;8943;51.110;-4.158;2022-12-08T15:40:00;5.97;;;3.80;;
17648;SDS011;8943;51.110;-4.158;2022-12-08T15:42:39;5.70;;;3.10;;
17648;SDS011;8943;51.110;-4.158;2022-12-08T15:45:14;4.50;;;3.23;;
17648;SDS011;8943;51.110;-4.158;2022-12-08T15:47:52;4.60;;;3.13;;
17648;SDS011;8943;51.110;-4.158;2022-12-08T15:53:38;5.13;;;3.17;;
17648;SDS011;8943;51.110;-4.158;2022-12-08T15:56:53;6.50;;;4.90;;
17648;SDS011;8943;51.110;-4.158;2022-12-08T15:59:33;6.70;;;4.40;;
17648;SDS011;8943;51.110;-4.158;2022-12-08T16:02:17;6.10;;;3.83;;
17648;SDS011;8943;51.110;-4.158;2022-12-08T16:59:20;4.17;;;3.40;;
17648;SDS011;8943;51.110;-4.158;2022-12-08T17:01:56;4.53;;;3.57;;
17648;SDS011;8943;51.110;-4.158;2022-12-08T17:04:41;5.10;;;3.90;;
17648;SDS011;8943;51.110;-4.158;2022-12-08T17:07:11;5.73;;;3.93;;
17648;SDS011;8943;51.110;-4.158;2022-12-08T17:09:43;6.83;;;4.93;;
17648;SDS011;8943;51.110;-4.158;2022-12-08T17:12:35;11.60;;;6.97;;
17648;SDS011;8943;51.110;-4.158;2022-12-08T17:19:13;5.43;;;4.20;;
17648;SDS011;8943;51.110;-4.158;2022-12-08T17:21:43;4.80;;;3.70;;
17648;SDS011;8943;51.110;-4.158;2022-12-08T17:24:13;4.73;;;3.87;;
17648;SDS011;8943;51.110;-4.158;2022-12-08T17:26:47;4.80;;;4.13;;
17648;SDS011;8943;51.110;-4.158;2022-12-08T17:29:18;6.50;;;4.73;;
17648;SDS011;8943;51.110;-4.158;2022-12-08T17:31:48;28.77;;;20.83;;
17648;SDS011;8943;51.110;-4.158;2022-12-08T17:34:22;69.00;;;39.30;;
17648;SDS011;8943;51.110;-4.158;2022-12-08T17:36:51;53.40;;;33.80;;
17648;SDS011;8943;51.110;-4.158;2022-12-08T17:39:37;30.57;;;20.70;;
17648;SDS011;8943;51.110;-4.158;2022-12-08T17:42:08;19.97;;;13.27;;
17648;SDS011;8943;51.110;-4.158;2022-12-08T17:44:39;44.93;;;18.67;;
17648;SDS011;8943;51.110;-4.158;2022-12-08T17:47:14;16.97;;;8.93;;
17648;SDS011;8943;51.110;-4.158;2022-12-08T17:49:46;13.07;;;6.47;;
17648;SDS011;8943;51.110;-4.158;2022-12-08T17:52:16;13.87;;;7.70;;
17648;SDS011;8943;51.110;-4.158;2022-12-08T17:54:45;13.73;;;7.73;;
17648;SDS011;8943;51.110;-4.158;2022-12-08T17:57:16;19.27;;;9.10;;
17648;SDS011;8943;51.110;-4.158;2022-12-08T17:59:46;14.40;;;8.20;;
17648;SDS011;8943;51.110;-4.158;2022-12-08T18:02:21;5.63;;;2.97;;
17648;SDS011;8943;51.110;-4.158;2022-12-08T18:05:06;4.37;;;2.13;;
17648;SDS011;8943;51.110;-4.158;2022-12-08T18:07:46;3.17;;;1.93;;
17648;SDS011;8943;51.110;-4.158;2022-12-08T18:10:15;2.60;;;1.60;;
17648;SDS011;8943;51.110;-4.158;2022-12-08T18:12:47;2.10;;;1.60;;
17648;SDS011;8943;51.110;-4.158;2022-12-08T18:15:22;2.30;;;2.07;;
17648;SDS011;8943;51.110;-4.158;2022-12-08T18:18:13;5.17;;;3.20;;
17648;SDS011;8943;51.110;-4.158;2022-12-08T18:21:10;15.00;;;11.63;;
17648;SDS011;8943;51.110;-4.158;2022-12-08T18:23:39;20.23;;;13.70;;
17648;SDS011;8943;51.110;-4.158;2022-12-08T18:26:10;108.73;;;18.07;;
17648;SDS011;8943;51.110;-4.158;2022-12-08T18:28:40;26.57;;;19.50;;
17648;SDS011;8943;51.110;-4.158;2022-12-08T18:31:10;14.27;;;9.37;;
17648;SDS011;8943;51.110;-4.158;2022-12-08T18:33:40;3.40;;;2.40;;
17648;SDS011;8943;51.110;-4.158;2022-12-08T18:36:13;4.83;;;2.97;;
17648;SDS011;8943;51.110;-4.158;2022-12-08T18:38:46;6.77;;;2.63;;
17648;SDS011;8943;51.110;-4.158;2022-12-08T18:41:16;5.10;;;2.80;;
17648;SDS011;8943;51.110;-4.158;2022-12-08T18:43:46;3.20;;;1.83;;
17648;SDS011;8943;51.110;-4.158;2022-12-08T18:46:34;4.90;;;2.30;;
17648;SDS011;8943;51.110;-4.158;2022-12-08T18:49:02;6.23;;;2.90;;
17648;SDS011;8943;51.110;-4.158;2022-12-08T18:51:32;3.67;;;2.30;;
17648;SDS011;8943;51.110;-4.158;2022-12-08T18:54:00;7.37;;;2.50;;
17648;SDS011;8943;51.110;-4.158;2022-12-08T18:56:31;3.87;;;1.97;;
17648;SDS011;8943;51.110;-4.158;2022-12-08T18:59:02;4.70;;;2.60;;
17648;SDS011;8943;51.110;-4.158;2022-12-08T19:01:38;3.27;;;2.40;;
17648;SDS011;8943;51.110;-4.158;2022-12-08T19:04:07;4.30;;;2.80;;
17648;SDS011;8943;51.110;-4.158;2022-12-08T19:06:56;4.90;;;2.90;;
17648;SDS011;8943;51.110;-4.158;2022-12-08T19:09:24;4.80;;;3.30;;
17648;SDS011;8943;51.110;-4.158;2022-12-08T19:11:55;3.70;;;3.00;;
17648;SDS011;8943;51.110;-4.158;2022-12-08T19:14:23;6.23;;;3.83;;
17648;SDS011;8943;51.110;-4.158;2022-12-08T19:17:08;8.43;;;4.63;;
17648;SDS011;8943;51.110;-4.158;2022-12-08T19:20:13;6.47;;;4.67;;
17648;SDS011;8943;51.110;-4.158;2022-12-08T19:23:22;6.83;;;3.97;;
17648;SDS011;8943;51.110;-4.158;2022-12-08T19:26:09;6.37;;;4.10;;
17648;SDS011;8943;51.110;-4.158;2022-12-08T19:29:24;3.43;;;2.60;;
17648;SDS011;8943;51.110;-4.158;2022-12-08T19:32:24;4.53;;;2.43;;
17648;SDS011;8943;51.110;-4.158;2022-12-08T20:02:37;2.33;;;1.73;;
17648;SDS011;8943;51.110;-4.158;2022-12-08T20:05:07;6.27;;;3.80;;
17648;SDS011;8943;51.110;-4.158;2022-12-08T20:07:40;6.00;;;4.00;;
17648;SDS011;8943;51.110;-4.158;2022-12-08T20:10:11;5.90;;;3.60;;
17648;SDS011;8943;51.110;-4.158;2022-12-08T20:12:43;9.37;;;5.67;;
17648;SDS011;8943;51.110;-4.158;2022-12-08T20:15:13;9.27;;;6.03;;
17648;SDS011;8943;51.110;-4.158;2022-12-08T20:17:44;8.57;;;5.70;;
17648;SDS011;8943;51.110;-4.158;2022-12-08T20:20:13;11.87;;;5.53;;
17648;SDS011;8943;51.110;-4.158;2022-12-08T20:22:43;4.17;;;2.77;;
17648;SDS011;8943;51.110;-4.158;2022-12-08T20:25:24;4.07;;;2.20;;
17648;SDS011;8943;51.110;-4.158;2022-12-08T20:41:49;10.50;;;6.53;;
17648;SDS011;8943;51.110;-4.158;2022-12-08T20:44:20;14.57;;;6.43;;
17648;SDS011;8943;51.110;-4.158;2022-12-08T20:47:05;52.43;;;8.97;;
17648;SDS011;8943;51.110;-4.158;2022-12-08T20:49:40;8.00;;;5.47;;
17648;SDS011;8943;51.110;-4.158;2022-12-08T20:52:12;9.13;;;7.00;;
17648;SDS011;8943;51.110;-4.158;2022-12-08T20:54:47;7.37;;;3.80;;
17648;SDS011;8943;51.110;-4.158;2022-12-08T21:00:55;7.13;;;4.20;;
17648;SDS011;8943;51.110;-4.158;2022-12-08T21:03:25;8.90;;;5.73;;
17648;SDS011;8943;51.110;-4.158;2022-12-08T21:06:13;6.97;;;4.53;;
17648;SDS011;8943;51.110;-4.158;2022-12-08T21:09:05;5.27;;;3.47;;
17648;SDS011;8943;51.110;-4.158;2022-12-08T21:11:39;17.70;;;8.90;;
17648;SDS011;8943;51.110;-4.158;2022-12-08T21:14:38;8.77;;;5.10;;
17648;SDS011;8943;51.110;-4.158;2022-12-08T21:17:33;6.77;;;4.40;;
17648;SDS011;8943;51.110;-4.158;2022-12-08T21:20:05;5.47;;;3.63;;
17648;SDS011;8943;51.110;-4.158;2022-12-08T21:29:22;9.77;;;7.40;;
17648;SDS011;8943;51.110;-4.158;2022-12-08T21:56:08;15.10;;;9.33;;
17648;SDS011;8943;51.110;-4.158;2022-12-08T21:58:38;13.10;;;9.90;;
17648;SDS011;8943;51.110;-4.158;2022-12-08T22:01:11;12.83;;;9.37;;
17648;SDS011;8943;51.110;-4.158;2022-12-08T22:53:52;7.57;;;3.90;;
17648;SDS011;8943;51.110;-4.158;2022-12-08T22:56:21;5.37;;;3.37;;
17648;SDS011;8943;51.110;-4.158;2022-12-08T22:58:56;5.77;;;3.00;;
17648;SDS011;8943;51.110;-4.158;2022-12-08T23:01:29;4.57;;;3.00;;
17648;SDS011;8943;51.110;-4.158;2022-12-08T23:04:17;5.57;;;3.00;;
17648;SDS011;8943;51.110;-4.158;2022-12-08T23:06:51;5.10;;;2.40;;
17648;SDS011;8943;51.110;-4.158;2022-12-08T23:09:34;4.33;;;2.73;;
17648;SDS011;8943;51.110;-4.158;2022-12-08T23:12:23;7.70;;;3.03;;
17648;SDS011;8943;51.110;-4.158;2022-12-08T23:14:55;7.87;;;4.17;;
17648;SDS011;8943;51.110;-4.158;2022-12-08T23:17:23;4.73;;;2.90;;
17648;SDS011;8943;51.110;-4.158;2022-12-08T23:19:52;4.97;;;2.67;;
17648;SDS011;8943;51.110;-4.158;2022-12-08T23:22:20;9.30;;;3.80;;
17648;SDS011;8943;51.110;-4.158;2022-12-08T23:24:50;8.90;;;4.73;;
17648;SDS011;8943;51.110;-4.158;2022-12-08T23:27:20;7.37;;;3.77;;
17648;SDS011;8943;51.110;-4.158;2022-12-08T23:29:51;4.63;;;3.47;;
17648;SDS011;8943;51.110;-4.158;2022-12-08T23:32:20;4.83;;;2.77;;
17648;SDS011;8943;51.110;-4.158;2022-12-08T23:34:50;4.27;;;2.73;;
17648;SDS011;8943;51.110;-4.158;2022-12-08T23:37:19;5.80;;;2.40;;
17648;SDS011;8943;51.110;-4.158;2022-12-08T23:39:48;2.80;;;2.40;;
17648;SDS011;8943;51.110;-4.158;2022-12-08T23:42:18;3.37;;;2.50;;
17648;SDS011;8943;51.110;-4.158;2022-12-08T23:44:46;3.40;;;2.53;;
17648;SDS011;8943;51.110;-4.158;2022-12-08T23:47:16;3.30;;;2.40;;
17648;SDS011;8943;51.110;-4.158;2022-12-08T23:49:51;3.80;;;2.47;;
17648;SDS011;8943;51.110;-4.158;2022-12-08T23:52:52;5.53;;;2.53;;
17648;SDS011;8943;51.110;-4.158;2022-12-08T23:55:32;4.13;;;2.47;;
17648;SDS011;8943;51.110;-4.158;2022-12-08T23:58:02;5.40;;;3.40;;
